Abbot, ME

7:49 PM EDT on March 26, 2015 (GMT -0400)
Millinocket Municipal | | Change Station
CLOSE
Current Station
Airport
Location: Millinocket,
Elevation: 407 ft
Nearby Weather Stations

Elev 407 ft 45.65 °N, 68.69 °W | Updated 25 minutes ago

Rain
Rain
38 °F
Feels Like 38 °F
N
0
Wind Variable Wind from North

Today
High -- | Low -- °F
--% Chance of Precip.
Yesterday
High -- | Low -- °F
Precip. -- in
6:30 AM 6:58 PM
Waxing Crescent, 47% visible
Pressure 29.66 in
Visibility 0.8 miles
Clouds Overcast 5000 ft
Dew Point 37 °F
Humidity 97%
Rainfall 0.13 in
Snow Depth Not available.
UV 0 out of 12
Pollen 2.50 out of 12
Air Quality Not available.
Flu Activity Not available.
SPECI KMLT 262324Z AUTO 00000KT 3/4SM -RA BR OVC050 03/03 A2966 RMK AO2 VIS 1/2V3 P0000 T00330028

More Conditions Fewer Conditions

Pressure 29.66 in
Visibility 0.8 miles
Clouds Overcast 5000 ft
Dew Point 37 °F
Humidity 97%
Rainfall 0.13 in
Snow Depth Not available.
UV 0 out of 12
Pollen 2.50 out of 12
Air Quality Not available.
Flu Activity Not available.
SPECI KMLT 262324Z AUTO 00000KT 3/4SM -RA BR OVC050 03/03 A2966 RMK AO2 VIS 1/2V3 P0000 T00330028

More Conditions Fewer Conditions

10-Day Weather Forecast

Almanac

Astronomy

Mar. 26, 2015 Rise Set
Actual Time
Civil Twilight
Nautical Twilight
Astronomical Twilight
Moon
Length of Visible Light
Length of Day
Tomorrow will be .
, % of the Moon is Illuminated

Today's Extremes

State Highs State Lows

Community

WunderPhotos

Upload Photos

1,808,643 photos uploaded!

WunderBlogs® & News

Nearby

Air Quality

  Air Quality AQ Index Pollutant
Not available.

Snow Depth

Station Depth Elevation

Earthquake Activity

City Distance Mag. Time & Date
Minimum magnitude displayed is 2.5.

Coastal Water Temperatures

Place Temperature

Stations

Nearby Weather Stations

Station Location Temp. Windchill Dew Point Humidity Wind Precip. Elev Updated Type